Time;durP1;ratioP1;P1;durP2;ratioP2;P2;SDS_P1;SDS_P2;PMS_P1;PMS_P2;Temp;Humidity;BMP_temperature;BMP_pressure;BME280_temperature;BME280_humidity;BME280_pressure;Samples;Min_cycle;Max_cycle;Signal;HPM_P1;HPM_P2
2023/11/17 00:01:43;;;;;;;33.97;21.30;;;;;;;;;;10510566;28;20414;-89
2023/11/17 00:06:45;;;;;;;30.17;19.37;;;;;;;;;;10543194;28;20965;-91
2023/11/17 00:11:49;;;;;;;32.65;19.90;;;;;;;;;;10528808;28;20870;-90
2023/11/17 00:16:52;;;;;;;33.45;20.20;;;;;;;;;;10541763;28;20781;-88
2023/11/17 00:21:54;;;;;;;31.60;20.35;;;;;;;;;;10535937;28;20404;-90
2023/11/17 00:26:59;;;;;;;35.45;20.17;;;;;;;;;;10529090;28;20438;-91
2023/11/17 00:32:01;;;;;;;29.00;18.58;;;;;;;;;;10557064;28;20392;-91
2023/11/17 00:37:07;;;;;;;31.17;19.08;;;;;;;;;;10536994;28;20416;-90
2023/11/17 00:42:12;;;;;;;32.67;19.67;;;;;;;;;;10515969;28;20416;-90
2023/11/17 00:47:15;;;;;;;31.73;19.57;;;;;;;;;;10531937;28;20434;-91
2023/11/17 00:52:17;;;;;;;31.30;19.13;;;;;;;;;;10528893;28;20426;-90
2023/11/17 00:57:21;;;;;;;33.67;19.33;;;;;;;;;;10539935;28;20430;-90
2023/11/17 01:02:24;;;;;;;29.35;19.35;;;;;;;;;;10530215;28;20397;-90
2023/11/17 01:07:27;;;;;;;29.52;18.35;;;;;;;;;;10506714;28;20406;-90
2023/11/17 01:12:31;;;;;;;29.55;18.40;;;;;;;;;;10529927;28;20401;-90
2023/11/17 01:17:33;;;;;;;31.73;18.83;;;;;;;;;;10543210;28;20452;-91
2023/11/17 01:22:36;;;;;;;29.58;18.38;;;;;;;;;;10555788;28;20389;-90
2023/11/17 01:27:40;;;;;;;29.97;18.73;;;;;;;;;;10547798;28;20404;-91
2023/11/17 01:32:42;;;;;;;31.02;18.52;;;;;;;;;;10521269;28;20398;-90
2023/11/17 01:37:45;;;;;;;28.13;18.90;;;;;;;;;;10516493;28;20815;-90
2023/11/17 01:42:49;;;;;;;29.70;18.80;;;;;;;;;;10522025;28;20468;-90
2023/11/17 01:47:52;;;;;;;31.95;18.70;;;;;;;;;;10523769;28;20435;-90
2023/11/17 01:52:55;;;;;;;31.97;18.33;;;;;;;;;;10506722;28;20476;-90
2023/11/17 01:58:02;;;;;;;28.20;17.90;;;;;;;;;;10554903;28;20412;-90
2023/11/17 02:03:06;;;;;;;32.20;18.23;;;;;;;;;;10545464;28;20396;-90
2023/11/17 02:08:21;;;;;;;26.27;17.47;;;;;;;;;;10524729;28;20486;-90
2023/11/17 02:13:32;;;;;;;28.13;17.30;;;;;;;;;;10496373;28;20444;-90
2023/11/17 02:18:37;;;;;;;26.43;16.20;;;;;;;;;;10523898;28;20485;-91
2023/11/17 02:23:42;;;;;;;24.55;15.73;;;;;;;;;;10531251;28;20409;-88
2023/11/17 02:28:58;;;;;;;25.90;16.27;;;;;;;;;;10536934;28;20410;-90
2023/11/17 02:34:06;;;;;;;24.23;14.45;;;;;;;;;;10527619;28;20399;-90
2023/11/17 02:39:14;;;;;;;23.73;15.25;;;;;;;;;;10549175;28;20479;-90
2023/11/17 02:44:16;;;;;;;24.60;14.68;;;;;;;;;;10531834;28;20436;-90
2023/11/17 02:49:29;;;;;;;24.70;14.65;;;;;;;;;;10540242;28;20420;-90
2023/11/17 02:54:34;;;;;;;21.83;14.33;;;;;;;;;;10533454;28;20404;-91
2023/11/17 02:59:37;;;;;;;22.50;14.17;;;;;;;;;;10551133;28;20477;-90
2023/11/17 03:04:42;;;;;;;20.10;13.40;;;;;;;;;;10547078;28;20460;-90
2023/11/17 03:09:45;;;;;;;21.95;13.43;;;;;;;;;;10539837;28;20516;-90
2023/11/17 03:14:47;;;;;;;20.35;12.55;;;;;;;;;;10529183;28;20477;-90
2023/11/17 03:19:51;;;;;;;20.83;13.13;;;;;;;;;;10541626;28;20798;-91
2023/11/17 03:24:53;;;;;;;19.85;12.20;;;;;;;;;;10554758;28;20442;-90
2023/11/17 03:29:56;;;;;;;17.25;10.88;;;;;;;;;;10549389;28;20465;-89
2023/11/17 03:34:59;;;;;;;20.13;11.65;;;;;;;;;;10523781;28;20481;-89
2023/11/17 03:40:07;;;;;;;18.30;11.18;;;;;;;;;;10529788;28;20421;-91
2023/11/17 03:45:15;;;;;;;18.93;11.17;;;;;;;;;;10524645;28;20398;-90
2023/11/17 03:50:20;;;;;;;19.43;11.03;;;;;;;;;;10535430;28;20515;-90
2023/11/17 03:55:22;;;;;;;16.48;10.63;;;;;;;;;;10531115;28;20410;-90
2023/11/17 04:00:27;;;;;;;21.77;12.50;;;;;;;;;;10514219;28;20463;-90
2023/11/17 04:05:33;;;;;;;20.65;12.00;;;;;;;;;;10520691;28;20426;-89
2023/11/17 04:10:35;;;;;;;22.58;13.07;;;;;;;;;;10521952;28;20479;-90
2023/11/17 04:15:37;;;;;;;19.35;11.52;;;;;;;;;;10520692;28;20446;-90
2023/11/17 04:20:42;;;;;;;20.60;11.33;;;;;;;;;;10535283;28;20402;-90
2023/11/17 04:25:44;;;;;;;17.70;11.20;;;;;;;;;;10524290;28;20509;-90
2023/11/17 04:30:47;;;;;;;18.02;11.20;;;;;;;;;;10500546;28;20403;-90
2023/11/17 04:35:51;;;;;;;16.58;10.45;;;;;;;;;;10502796;28;20490;-91
2023/11/17 04:40:54;;;;;;;16.95;9.77;;;;;;;;;;10522881;28;20403;-90
2023/11/17 04:45:56;;;;;;;15.50;9.35;;;;;;;;;;10529105;28;20896;-90
2023/11/17 04:51:00;;;;;;;15.33;9.13;;;;;;;;;;10516288;28;20445;-89
2023/11/17 04:56:02;;;;;;;14.35;9.07;;;;;;;;;;10523543;28;20428;-90
2023/11/17 05:01:05;;;;;;;14.77;8.77;;;;;;;;;;10531630;28;20473;-90
2023/11/17 05:06:08;;;;;;;15.90;9.02;;;;;;;;;;10529028;28;20406;-90
2023/11/17 05:11:11;;;;;;;14.23;8.63;;;;;;;;;;10541649;28;20509;-89
2023/11/17 05:16:14;;;;;;;11.43;8.23;;;;;;;;;;10534004;28;20457;-91
2023/11/17 05:21:18;;;;;;;12.45;8.25;;;;;;;;;;10543831;28;20410;-88
2023/11/17 05:26:20;;;;;;;14.70;8.10;;;;;;;;;;10514004;28;20487;-90
2023/11/17 05:31:26;;;;;;;11.90;7.72;;;;;;;;;;10518604;28;20428;-90
2023/11/17 05:36:29;;;;;;;13.27;8.27;;;;;;;;;;10518301;28;20464;-90
2023/11/17 05:41:32;;;;;;;13.23;8.52;;;;;;;;;;10520480;28;20787;-90
2023/11/17 05:46:34;;;;;;;15.83;9.33;;;;;;;;;;10527034;28;20401;-89
2023/11/17 05:51:38;;;;;;;14.13;9.15;;;;;;;;;;10515213;28;20493;-90
2023/11/17 05:56:42;;;;;;;14.27;8.60;;;;;;;;;;10537826;28;20425;-90
2023/11/17 06:01:46;;;;;;;12.70;8.40;;;;;;;;;;10519535;28;20432;-89
2023/11/17 06:06:50;;;;;;;14.57;9.43;;;;;;;;;;10515832;28;20476;-90
2023/11/17 06:11:53;;;;;;;12.65;8.43;;;;;;;;;;10520101;28;20519;-90
2023/11/17 06:16:55;;;;;;;13.70;8.88;;;;;;;;;;10546041;28;20761;-90
2023/11/17 06:21:59;;;;;;;13.00;8.13;;;;;;;;;;10512484;28;20787;-90
2023/11/17 06:27:02;;;;;;;15.93;9.10;;;;;;;;;;10517848;28;20456;-90
2023/11/17 06:32:06;;;;;;;16.65;9.85;;;;;;;;;;10522624;28;20466;-90
2023/11/17 06:37:11;;;;;;;19.17;9.75;;;;;;;;;;10515770;28;20833;-90
2023/11/17 06:42:14;;;;;;;13.83;9.20;;;;;;;;;;10520085;28;20922;-87
2023/11/17 06:47:17;;;;;;;15.07;9.27;;;;;;;;;;10515610;28;20967;-88
2023/11/17 06:52:21;;;;;;;13.75;8.52;;;;;;;;;;10511810;28;20554;-88
2023/11/17 06:57:23;;;;;;;17.73;9.88;;;;;;;;;;10530116;28;20826;-88
2023/11/17 07:02:25;;;;;;;15.52;9.55;;;;;;;;;;10512082;28;20444;-90
2023/11/17 07:07:31;;;;;;;14.83;8.23;;;;;;;;;;10528096;28;20393;-90
2023/11/17 07:12:35;;;;;;;14.33;8.63;;;;;;;;;;10552780;28;20533;-89
2023/11/17 07:17:37;;;;;;;18.50;9.20;;;;;;;;;;10542984;28;20412;-90
2023/11/17 07:22:42;;;;;;;16.58;9.85;;;;;;;;;;10519454;28;20412;-90
2023/11/17 07:27:44;;;;;;;17.17;9.65;;;;;;;;;;10532732;28;20503;-90
2023/11/17 07:32:47;;;;;;;16.02;9.90;;;;;;;;;;10525137;28;20400;-90
2023/11/17 07:37:52;;;;;;;18.03;9.27;;;;;;;;;;10527960;28;20421;-91
2023/11/17 07:42:55;;;;;;;14.97;9.23;;;;;;;;;;10523855;28;20459;-91
2023/11/17 07:47:58;;;;;;;15.30;7.90;;;;;;;;;;10531117;28;20396;-92
2023/11/17 07:53:02;;;;;;;14.52;8.70;;;;;;;;;;10542638;28;20409;-93
2023/11/17 07:58:05;;;;;;;15.60;8.48;;;;;;;;;;10532660;28;20420;-92
2023/11/17 08:03:10;;;;;;;14.97;7.43;;;;;;;;;;10536813;28;20392;-92
2023/11/17 08:08:16;;;;;;;15.00;7.70;;;;;;;;;;10538939;28;20396;-94
2023/11/17 08:13:19;;;;;;;12.57;6.50;;;;;;;;;;10531021;28;20437;-89
2023/11/17 08:23:55;;;;;;;9.93;6.60;;;;;;;;;;1262734;22;20771;-84
2023/11/17 08:28:58;;;;;;;10.55;7.13;;;;;;;;;;10400827;28;20467;-94
2023/11/17 08:34:01;;;;;;;10.02;6.60;;;;;;;;;;10403738;28;20440;-93
2023/11/17 08:39:08;;;;;;;11.85;7.57;;;;;;;;;;10415400;28;20502;-94
2023/11/17 08:44:11;;;;;;;10.77;7.05;;;;;;;;;;10431380;28;20402;-96
2023/11/17 08:49:14;;;;;;;12.80;7.55;;;;;;;;;;10445339;28;20444;-96
2023/11/17 08:54:17;;;;;;;15.25;7.57;;;;;;;;;;10414707;28;20413;-93
2023/11/17 08:59:20;;;;;;;14.23;7.10;;;;;;;;;;10403235;28;20487;-91
2023/11/17 09:04:22;;;;;;;10.30;7.30;;;;;;;;;;10391036;28;20413;-90
2023/11/17 09:09:26;;;;;;;11.80;7.45;;;;;;;;;;10434153;28;20453;-89
2023/11/17 09:14:30;;;;;;;13.02;7.32;;;;;;;;;;10452887;22;20491;-90
2023/11/17 09:19:35;;;;;;;11.30;6.55;;;;;;;;;;10418700;28;21012;-91
2023/11/17 09:24:40;;;;;;;10.43;5.87;;;;;;;;;;10417648;28;20495;-90
2023/11/17 09:29:42;;;;;;;11.10;6.83;;;;;;;;;;10401820;28;20414;-90
2023/11/17 09:34:44;;;;;;;13.23;8.37;;;;;;;;;;10410619;28;20849;-90
2023/11/17 09:39:50;;;;;;;13.17;7.60;;;;;;;;;;10412613;28;20429;-90
2023/11/17 09:44:55;;;;;;;13.40;8.23;;;;;;;;;;10401838;28;20414;-90
2023/11/17 09:49:59;;;;;;;11.98;7.63;;;;;;;;;;10398748;28;20413;-89
2023/11/17 09:55:03;;;;;;;11.55;8.00;;;;;;;;;;10409631;28;20405;-90
2023/11/17 10:00:17;;;;;;;16.70;8.00;;;;;;;;;;10424779;28;20400;-91
2023/11/17 10:05:20;;;;;;;14.07;8.60;;;;;;;;;;10414721;28;20984;-90
2023/11/17 10:10:26;;;;;;;15.65;8.35;;;;;;;;;;10409162;28;20415;-91
2023/11/17 10:15:31;;;;;;;14.02;8.52;;;;;;;;;;10401300;28;20397;-91
2023/11/17 10:20:35;;;;;;;15.50;8.88;;;;;;;;;;10402186;28;20475;-90
2023/11/17 10:25:40;;;;;;;13.02;8.70;;;;;;;;;;10392373;28;20405;-91
2023/11/17 10:30:45;;;;;;;13.55;8.20;;;;;;;;;;10410772;28;20457;-92
2023/11/17 10:36:01;;;;;;;13.68;8.57;;;;;;;;;;10408865;28;20465;-90
2023/11/17 10:41:30;;;;;;;12.68;7.72;;;;;;;;;;10392084;28;20806;-91
2023/11/17 10:46:39;;;;;;;13.52;8.55;;;;;;;;;;10390487;28;20399;-91
2023/11/17 10:51:46;;;;;;;12.80;8.35;;;;;;;;;;10391765;28;20467;-91
2023/11/17 10:56:51;;;;;;;12.53;8.37;;;;;;;;;;10413513;28;20872;-93
2023/11/17 11:01:54;;;;;;;15.15;8.18;;;;;;;;;;10419508;28;20397;-90
2023/11/17 11:06:57;;;;;;;12.75;7.93;;;;;;;;;;10430608;28;21128;-90
2023/11/17 11:12:02;;;;;;;14.00;7.97;;;;;;;;;;10425020;28;20448;-91
2023/11/17 11:17:06;;;;;;;12.63;7.60;;;;;;;;;;10414623;28;20432;-91
2023/11/17 11:22:12;;;;;;;15.10;7.97;;;;;;;;;;10399496;28;20471;-89
2023/11/17 11:27:16;;;;;;;13.75;8.27;;;;;;;;;;10411873;28;20869;-88
2023/11/17 11:32:19;;;;;;;14.27;7.90;;;;;;;;;;10393974;28;20418;-89
2023/11/17 11:37:23;;;;;;;11.30;7.33;;;;;;;;;;10396083;28;20512;-88
2023/11/17 11:42:27;;;;;;;13.20;8.50;;;;;;;;;;10397703;28;20432;-85
2023/11/17 11:47:30;;;;;;;11.20;7.77;;;;;;;;;;10399362;28;20517;-89
2023/11/17 11:52:42;;;;;;;12.27;8.73;;;;;;;;;;10416213;28;20397;-88
2023/11/17 11:57:58;;;;;;;12.63;8.63;;;;;;;;;;10395753;28;20479;-88
2023/11/17 12:03:03;;;;;;;14.25;9.20;;;;;;;;;;10403519;28;20562;-88
2023/11/17 12:08:23;;;;;;;12.75;8.00;;;;;;;;;;10411861;28;20506;-89
2023/11/17 12:13:43;;;;;;;15.98;8.57;;;;;;;;;;10411189;28;20420;-89
2023/11/17 12:18:48;;;;;;;16.57;9.07;;;;;;;;;;10444712;28;20839;-90
2023/11/17 12:23:55;;;;;;;14.38;8.82;;;;;;;;;;10433375;28;20452;-91
2023/11/17 12:29:00;;;;;;;13.73;9.45;;;;;;;;;;10437057;28;20965;-91
2023/11/17 12:34:05;;;;;;;12.77;8.37;;;;;;;;;;10434794;28;20396;-88
2023/11/17 12:39:08;;;;;;;12.20;8.13;;;;;;;;;;10435588;28;20477;-90
2023/11/17 12:44:16;;;;;;;15.65;8.80;;;;;;;;;;10442671;28;20891;-90
2023/11/17 12:49:19;;;;;;;15.83;8.93;;;;;;;;;;10444220;28;20438;-89
2023/11/17 12:54:21;;;;;;;12.03;8.37;;;;;;;;;;10431142;28;20923;-89
2023/11/17 12:59:25;;;;;;;17.75;10.90;;;;;;;;;;10444637;28;20470;-86
2023/11/17 13:04:27;;;;;;;15.77;10.55;;;;;;;;;;10432129;28;20416;-87
2023/11/17 13:09:30;;;;;;;16.63;9.27;;;;;;;;;;10432589;28;20477;-88
2023/11/17 13:14:34;;;;;;;19.67;13.00;;;;;;;;;;10446317;28;20520;-88
2023/11/17 13:19:39;;;;;;;15.00;9.30;;;;;;;;;;10440232;28;20538;-88
2023/11/17 13:24:41;;;;;;;14.55;9.80;;;;;;;;;;10437859;28;20465;-88
2023/11/17 13:29:46;;;;;;;17.02;11.95;;;;;;;;;;10428092;28;20469;-88
2023/11/17 13:34:54;;;;;;;15.13;9.40;;;;;;;;;;10427118;28;20400;-89
2023/11/17 13:39:58;;;;;;;11.60;8.32;;;;;;;;;;10431145;28;20451;-88
2023/11/17 13:45:03;;;;;;;15.82;10.10;;;;;;;;;;10432754;28;20435;-88
2023/11/17 13:50:14;;;;;;;13.07;8.57;;;;;;;;;;10432795;28;20401;-88
2023/11/17 13:55:18;;;;;;;11.30;8.50;;;;;;;;;;10431705;28;20485;-90
2023/11/17 14:00:24;;;;;;;44.80;35.17;;;;;;;;;;10444503;28;20411;-91
2023/11/17 14:05:26;;;;;;;13.77;10.10;;;;;;;;;;10444537;28;20430;-90
2023/11/17 14:10:28;;;;;;;13.43;10.52;;;;;;;;;;10447994;28;20404;-90
2023/11/17 14:15:34;;;;;;;14.83;9.37;;;;;;;;;;10438155;28;20408;-90
2023/11/17 14:20:37;;;;;;;13.23;9.53;;;;;;;;;;10442275;28;20497;-90
2023/11/17 14:25:41;;;;;;;14.27;10.00;;;;;;;;;;10436862;28;20429;-90
2023/11/17 14:30:45;;;;;;;18.50;10.88;;;;;;;;;;10447940;28;20458;-90
2023/11/17 14:35:47;;;;;;;14.33;10.83;;;;;;;;;;10434054;28;20483;-90
2023/11/17 14:40:50;;;;;;;16.88;10.70;;;;;;;;;;10443883;28;20475;-91
2023/11/17 14:45:53;;;;;;;21.37;11.63;;;;;;;;;;10435625;28;20444;-90
2023/11/17 14:50:56;;;;;;;21.05;12.45;;;;;;;;;;10442101;28;20504;-90
2023/11/17 14:55:59;;;;;;;19.48;12.57;;;;;;;;;;10436130;28;20446;-91
2023/11/17 15:01:05;;;;;;;29.60;14.50;;;;;;;;;;10436507;28;20425;-90
2023/11/17 15:06:15;;;;;;;30.70;16.80;;;;;;;;;;10439590;28;20404;-90
2023/11/17 15:11:21;;;;;;;31.67;15.77;;;;;;;;;;10436176;28;20477;-90
2023/11/17 15:16:28;;;;;;;24.90;14.50;;;;;;;;;;10439070;28;20434;-90
2023/11/17 15:21:35;;;;;;;22.57;14.53;;;;;;;;;;10436651;28;20477;-90
2023/11/17 15:26:38;;;;;;;25.05;15.82;;;;;;;;;;10440854;28;20475;-86
2023/11/17 15:31:46;;;;;;;24.98;16.67;;;;;;;;;;10438018;28;20493;-86
2023/11/17 15:36:50;;;;;;;29.73;17.45;;;;;;;;;;10440773;28;20404;-88
2023/11/17 15:41:53;;;;;;;29.02;17.65;;;;;;;;;;10447246;28;20420;-88
2023/11/17 15:46:57;;;;;;;34.73;18.30;;;;;;;;;;10436510;28;20399;-87
2023/11/17 15:51:59;;;;;;;64.68;36.38;;;;;;;;;;10424424;28;20481;-89
2023/11/17 15:57:02;;;;;;;53.33;28.65;;;;;;;;;;10437114;28;20451;-90
2023/11/17 16:02:06;;;;;;;40.45;24.60;;;;;;;;;;10442875;28;20501;-90
2023/11/17 16:07:09;;;;;;;39.33;23.30;;;;;;;;;;10431058;28;20478;-88
2023/11/17 16:12:14;;;;;;;31.30;18.47;;;;;;;;;;10436233;28;20454;-89
2023/11/17 16:17:18;;;;;;;159.50;65.85;;;;;;;;;;10447090;28;20423;-89
2023/11/17 16:22:20;;;;;;;34.53;19.50;;;;;;;;;;10442082;28;20418;-88
2023/11/17 16:27:23;;;;;;;56.53;28.27;;;;;;;;;;10449760;28;20424;-88
2023/11/17 16:32:27;;;;;;;85.50;38.87;;;;;;;;;;10442340;28;21326;-88
2023/11/17 16:37:36;;;;;;;51.35;27.08;;;;;;;;;;10440947;28;20396;-88
2023/11/17 16:42:39;;;;;;;32.80;17.47;;;;;;;;;;10430776;28;20459;-87
2023/11/17 16:47:43;;;;;;;35.80;19.75;;;;;;;;;;10439612;28;20420;-88
2023/11/17 16:52:45;;;;;;;30.35;18.58;;;;;;;;;;10434448;28;20414;-87
2023/11/17 16:57:48;;;;;;;30.13;18.77;;;;;;;;;;10437224;28;20400;-88
2023/11/17 17:02:51;;;;;;;30.95;18.60;;;;;;;;;;10428558;28;20534;-88
2023/11/17 17:07:54;;;;;;;34.90;22.20;;;;;;;;;;10445295;28;20438;-89
2023/11/17 17:12:58;;;;;;;32.13;19.27;;;;;;;;;;10438422;28;20454;-87
2023/11/17 17:18:06;;;;;;;32.22;20.95;;;;;;;;;;10434873;28;20473;-88
2023/11/17 17:23:11;;;;;;;30.03;17.73;;;;;;;;;;10429160;28;20430;-89
2023/11/17 17:28:15;;;;;;;32.22;18.35;;;;;;;;;;10442694;28;20838;-89
2023/11/17 17:33:19;;;;;;;37.55;21.13;;;;;;;;;;10447642;28;20489;-89
2023/11/17 17:38:22;;;;;;;29.97;18.90;;;;;;;;;;10429909;28;20400;-89
2023/11/17 17:43:27;;;;;;;31.27;18.60;;;;;;;;;;10422518;28;20754;-89
2023/11/17 17:48:32;;;;;;;29.00;18.05;;;;;;;;;;10434886;28;20414;-89
2023/11/17 17:53:34;;;;;;;30.20;18.90;;;;;;;;;;10427577;28;20489;-89
2023/11/17 17:58:37;;;;;;;28.15;16.98;;;;;;;;;;10422439;28;20416;-92
2023/11/17 18:03:41;;;;;;;27.90;17.33;;;;;;;;;;10443761;28;20462;-93
2023/11/17 18:08:44;;;;;;;33.07;19.33;;;;;;;;;;10434790;28;20412;-94
2023/11/17 18:13:49;;;;;;;31.20;19.80;;;;;;;;;;10426608;28;20407;-91
2023/11/17 18:18:53;;;;;;;36.47;22.10;;;;;;;;;;10409706;28;20459;-92
2023/11/17 18:23:55;;;;;;;49.50;30.67;;;;;;;;;;10408301;28;20460;-90
2023/11/17 18:28:59;;;;;;;37.35;22.92;;;;;;;;;;10400193;28;20408;-93
2023/11/17 18:34:03;;;;;;;50.70;27.37;;;;;;;;;;10390675;28;20505;-90
2023/11/17 18:39:11;;;;;;;67.25;36.55;;;;;;;;;;10405595;28;20467;-90
2023/11/17 18:44:13;;;;;;;40.28;23.67;;;;;;;;;;10413488;28;20485;-87
2023/11/17 18:49:17;;;;;;;128.77;65.13;;;;;;;;;;10389365;28;20466;-88
2023/11/17 18:54:20;;;;;;;41.55;24.08;;;;;;;;;;10387501;28;20519;-87
2023/11/17 18:59:22;;;;;;;53.25;30.30;;;;;;;;;;10389633;28;20449;-88
2023/11/17 19:04:27;;;;;;;158.63;60.58;;;;;;;;;;10388095;28;20490;-89
2023/11/17 19:09:29;;;;;;;53.60;27.00;;;;;;;;;;10382649;28;20448;-88
2023/11/17 19:14:33;;;;;;;37.80;21.92;;;;;;;;;;10420834;28;20412;-88
2023/11/17 19:19:37;;;;;;;42.93;24.80;;;;;;;;;;10447880;28;20567;-89
2023/11/17 19:24:40;;;;;;;36.55;21.38;;;;;;;;;;10425056;28;20417;-88
2023/11/17 19:29:44;;;;;;;35.67;20.23;;;;;;;;;;10425788;28;20896;-88
2023/11/17 19:34:48;;;;;;;25.60;14.63;;;;;;;;;;10425282;28;20408;-87
2023/11/17 19:39:51;;;;;;;26.63;14.05;;;;;;;;;;10428813;28;20452;-88
2023/11/17 19:44:53;;;;;;;23.17;14.23;;;;;;;;;;10423979;28;20422;-88
2023/11/17 19:49:57;;;;;;;22.83;14.77;;;;;;;;;;10424099;28;20449;-88
2023/11/17 19:54:59;;;;;;;26.30;16.15;;;;;;;;;;10420439;28;20443;-87
2023/11/17 20:00:06;;;;;;;44.20;24.50;;;;;;;;;;10428721;28;20453;-87
2023/11/17 20:05:10;;;;;;;35.57;20.73;;;;;;;;;;10433431;28;20923;-86
2023/11/17 20:10:13;;;;;;;30.70;19.20;;;;;;;;;;10435554;28;20425;-88
2023/11/17 20:15:16;;;;;;;77.72;39.40;;;;;;;;;;10431933;28;20443;-88
2023/11/17 20:20:21;;;;;;;39.73;22.53;;;;;;;;;;10443829;28;20483;-89
2023/11/17 20:25:23;;;;;;;39.08;26.40;;;;;;;;;;10447250;28;20420;-87
2023/11/17 20:30:25;;;;;;;39.73;21.77;;;;;;;;;;10451230;28;20415;-91
2023/11/17 20:35:29;;;;;;;37.83;22.60;;;;;;;;;;10444135;28;20420;-88
2023/11/17 20:40:32;;;;;;;38.08;20.75;;;;;;;;;;10437222;28;20485;-92
2023/11/17 20:45:34;;;;;;;36.47;19.95;;;;;;;;;;10429361;28;20403;-92
2023/11/17 20:50:39;;;;;;;38.28;22.48;;;;;;;;;;10432932;28;20443;-92
2023/11/17 20:55:41;;;;;;;31.30;18.15;;;;;;;;;;10434785;28;20588;-93
2023/11/17 21:00:46;;;;;;;40.22;22.58;;;;;;;;;;10443315;28;20450;-93
2023/11/17 21:05:50;;;;;;;36.50;20.93;;;;;;;;;;10431191;28;20421;-91
2023/11/17 21:10:53;;;;;;;32.60;18.27;;;;;;;;;;10438911;28;20423;-91
2023/11/17 21:15:55;;;;;;;32.25;17.63;;;;;;;;;;10432956;28;20797;-90
2023/11/17 21:20:59;;;;;;;32.63;18.52;;;;;;;;;;10426557;28;20417;-90
2023/11/17 21:26:02;;;;;;;32.88;19.35;;;;;;;;;;10430091;28;20435;-90
2023/11/17 21:31:04;;;;;;;34.23;19.50;;;;;;;;;;10434631;28;20407;-90
2023/11/17 21:36:08;;;;;;;32.40;20.30;;;;;;;;;;10440726;28;20443;-91
2023/11/17 21:41:13;;;;;;;32.80;19.63;;;;;;;;;;10440448;28;20491;-90
2023/11/17 21:46:17;;;;;;;35.90;18.92;;;;;;;;;;10431482;28;20472;-90
2023/11/17 21:51:22;;;;;;;35.77;18.67;;;;;;;;;;10425829;28;20465;-90
2023/11/17 21:56:24;;;;;;;31.63;18.13;;;;;;;;;;10436371;28;20403;-90
2023/11/17 22:01:27;;;;;;;29.67;16.83;;;;;;;;;;10449478;28;20454;-92
2023/11/17 22:06:30;;;;;;;28.35;16.17;;;;;;;;;;10430001;28;20421;-92
2023/11/17 22:11:33;;;;;;;28.92;16.45;;;;;;;;;;10420080;28;20888;-92
2023/11/17 22:16:36;;;;;;;25.57;16.00;;;;;;;;;;10439003;28;20891;-92
2023/11/17 22:21:40;;;;;;;26.92;15.95;;;;;;;;;;10426792;28;20912;-91
2023/11/17 22:26:42;;;;;;;27.33;15.73;;;;;;;;;;10432578;28;20978;-92
2023/11/17 22:31:44;;;;;;;24.98;15.32;;;;;;;;;;10423470;28;20409;-91
2023/11/17 22:36:48;;;;;;;26.85;16.08;;;;;;;;;;10431067;28;20480;-90
2023/11/17 22:41:50;;;;;;;27.43;16.97;;;;;;;;;;10435338;28;20447;-92
2023/11/17 22:46:55;;;;;;;30.93;18.53;;;;;;;;;;10442803;28;20420;-91
2023/11/17 22:51:59;;;;;;;31.63;18.25;;;;;;;;;;10442098;28;20467;-91
2023/11/17 22:57:01;;;;;;;26.60;16.97;;;;;;;;;;10456701;28;20440;-92
2023/11/17 23:02:07;;;;;;;26.17;16.55;;;;;;;;;;10426950;28;20939;-92
2023/11/17 23:07:12;;;;;;;23.05;15.43;;;;;;;;;;10441200;28;20449;-92
2023/11/17 23:12:14;;;;;;;21.23;13.80;;;;;;;;;;10440644;28;20408;-92
2023/11/17 23:17:17;;;;;;;25.48;14.38;;;;;;;;;;10446506;28;20406;-92
2023/11/17 23:22:21;;;;;;;21.90;14.43;;;;;;;;;;10442244;28;20423;-92
2023/11/17 23:27:23;;;;;;;20.88;14.30;;;;;;;;;;10443556;28;20457;-92
2023/11/17 23:32:32;;;;;;;26.10;15.55;;;;;;;;;;10433684;28;20408;-92
2023/11/17 23:37:36;;;;;;;21.85;13.88;;;;;;;;;;10434836;28;20448;-92
2023/11/17 23:42:40;;;;;;;24.20;14.90;;;;;;;;;;10430896;28;20433;-92
2023/11/17 23:47:43;;;;;;;25.67;14.73;;;;;;;;;;10434433;28;20739;-92
2023/11/17 23:52:47;;;;;;;23.52;14.88;;;;;;;;;;10393405;28;20462;-91
2023/11/17 23:57:49;;;;;;;22.55;13.90;;;;;;;;;;10407836;28;20411;-93
